createdAt,value
2022-11-22T00:01:10.589Z,52.90
2022-11-22T00:03:38.521Z,53.09
2022-11-22T00:06:06.289Z,52.95
2022-11-22T00:08:34.485Z,52.99
2022-11-22T00:11:02.468Z,52.94
2022-11-22T00:13:30.357Z,53.01
2022-11-22T00:16:01.206Z,52.94
2022-11-22T00:18:30.374Z,52.95
2022-11-22T00:21:06.101Z,53.00
2022-11-22T00:23:34.777Z,53.03
2022-11-22T00:26:02.686Z,53.10
2022-11-22T00:28:31.027Z,52.98
2022-11-22T00:30:59.023Z,53.18
2022-11-22T00:33:26.878Z,53.20
2022-11-22T00:35:54.631Z,53.18
2022-11-22T00:38:22.358Z,53.19
2022-11-22T00:40:50.113Z,53.33
2022-11-22T00:43:18.095Z,53.21
2022-11-22T00:45:47.275Z,53.33
2022-11-22T00:48:15.103Z,53.34
2022-11-22T00:50:43.050Z,53.46
2022-11-22T00:53:11.380Z,53.43
2022-11-22T00:55:39.264Z,53.46
2022-11-22T00:58:07.034Z,53.45
2022-11-22T01:00:35.697Z,53.63
2022-11-22T01:03:18.760Z,53.53
2022-11-22T01:05:46.959Z,53.48
2022-11-22T01:08:15.208Z,53.51
2022-11-22T01:10:43.126Z,53.51
2022-11-22T01:13:12.794Z,53.49
2022-11-22T01:15:42.222Z,53.58
2022-11-22T01:18:10.257Z,53.62
2022-11-22T01:20:41.330Z,53.56
2022-11-22T01:23:09.355Z,53.54
2022-11-22T01:25:37.382Z,53.65
2022-11-22T01:28:05.355Z,53.72
2022-11-22T01:30:33.382Z,53.80
2022-11-22T01:33:01.280Z,53.80
2022-11-22T01:35:29.493Z,53.68
2022-11-22T01:37:57.620Z,53.78
2022-11-22T01:40:26.287Z,53.60
2022-11-22T01:43:00.687Z,53.64
2022-11-22T01:45:31.750Z,53.77
2022-11-22T01:48:11.994Z,53.89
2022-11-22T01:50:43.998Z,53.81
2022-11-22T01:53:20.566Z,53.80
2022-11-22T01:55:51.368Z,53.99
2022-11-22T01:58:22.117Z,54.22
2022-11-22T02:00:51.757Z,54.24
2022-11-22T02:03:21.454Z,54.21
2022-11-22T02:05:50.769Z,54.23
2022-11-22T02:08:47.686Z,53.89
2022-11-22T02:11:18.824Z,54.22
2022-11-22T02:13:48.110Z,53.99
2022-11-22T02:16:16.094Z,54.25
2022-11-22T02:18:43.895Z,54.33
2022-11-22T02:21:11.791Z,54.29
2022-11-22T02:24:10.530Z,54.05
2022-11-22T02:26:38.402Z,54.17
2022-11-22T02:29:08.876Z,54.07
2022-11-22T02:31:47.712Z,54.19
2022-11-22T02:34:16.020Z,54.18
2022-11-22T02:36:53.186Z,54.27
2022-11-22T02:39:29.518Z,54.26
2022-11-22T02:41:57.660Z,54.30
2022-11-22T02:44:27.175Z,54.36
2022-11-22T02:46:55.867Z,54.21
2022-11-22T02:49:25.126Z,54.34
2022-11-22T02:51:54.001Z,54.44
2022-11-22T02:54:22.922Z,54.44
2022-11-22T02:56:50.967Z,54.63
2022-11-22T02:59:19.691Z,54.49
2022-11-22T03:01:48.889Z,54.62
2022-11-22T03:04:25.456Z,54.66
2022-11-22T03:06:56.769Z,54.60
2022-11-22T03:09:26.214Z,54.88
2022-11-22T03:11:54.788Z,54.70
2022-11-22T03:14:23.164Z,54.81
2022-11-22T03:16:51.617Z,54.88
2022-11-22T03:19:20.550Z,54.98
2022-11-22T03:21:49.742Z,54.86
2022-11-22T03:24:19.338Z,54.97
2022-11-22T03:26:49.297Z,55.03
2022-11-22T03:29:18.480Z,54.95
2022-11-22T03:31:46.317Z,55.13
2022-11-22T03:34:14.978Z,54.99
2022-11-22T03:36:45.774Z,55.59
2022-11-22T03:39:13.980Z,55.17
2022-11-22T03:41:41.773Z,55.16
2022-11-22T03:44:09.482Z,55.12
2022-11-22T03:46:37.315Z,54.98
2022-11-22T03:49:05.349Z,55.00
2022-11-22T03:51:33.119Z,54.87
2022-11-22T03:54:00.959Z,54.80
2022-11-22T03:56:29.041Z,54.72
2022-11-22T03:58:57.243Z,54.58
2022-11-22T04:01:25.134Z,54.58
2022-11-22T04:03:53.189Z,54.57
2022-11-22T04:06:20.951Z,54.38
2022-11-22T04:08:48.865Z,54.45
2022-11-22T04:11:16.780Z,54.50
2022-11-22T04:14:03.384Z,54.38
2022-11-22T04:16:31.347Z,54.61
2022-11-22T04:18:59.060Z,54.34
2022-11-22T04:21:36.080Z,54.44
2022-11-22T04:24:27.009Z,54.47
2022-11-22T04:26:55.201Z,54.43
2022-11-22T04:29:23.772Z,54.30
2022-11-22T04:32:11.139Z,54.19
2022-11-22T04:34:49.723Z,54.24
2022-11-22T04:37:18.121Z,54.15
2022-11-22T04:39:46.224Z,54.08
2022-11-22T04:42:33.053Z,53.90
2022-11-22T04:45:00.904Z,54.01
2022-11-22T04:47:50.508Z,53.98
2022-11-22T04:50:37.865Z,53.90
2022-11-22T04:53:07.407Z,53.79
2022-11-22T04:55:36.152Z,53.75
2022-11-22T04:58:04.299Z,53.65
2022-11-22T05:00:32.897Z,53.48
2022-11-22T05:03:01.542Z,53.40
2022-11-22T05:05:29.986Z,53.65
2022-11-22T05:08:01.424Z,53.61
2022-11-22T05:10:51.283Z,53.78
2022-11-22T05:13:21.936Z,53.61
2022-11-22T05:15:51.496Z,53.77
2022-11-22T05:18:21.431Z,53.80
2022-11-22T05:20:49.960Z,53.60
2022-11-22T05:23:37.480Z,53.58
2022-11-22T05:26:07.053Z,53.40
2022-11-22T05:28:37.915Z,53.62
2022-11-22T05:31:25.486Z,53.64
2022-11-22T05:33:57.489Z,53.57
2022-11-22T05:36:25.717Z,53.60
2022-11-22T05:38:54.966Z,53.50
2022-11-22T05:41:23.334Z,53.73
2022-11-22T05:43:51.493Z,53.64
2022-11-22T05:46:25.409Z,53.64
2022-11-22T05:48:58.294Z,53.72
2022-11-22T05:51:34.172Z,53.87
2022-11-22T05:54:04.035Z,54.00
2022-11-22T05:56:35.429Z,53.85
2022-11-22T05:59:04.638Z,53.93
2022-11-22T06:01:33.153Z,53.90
2022-11-22T06:04:01.226Z,53.94
2022-11-22T06:06:30.581Z,54.03
2022-11-22T06:08:59.894Z,53.93
2022-11-22T06:11:28.779Z,53.86
2022-11-22T06:14:04.766Z,54.03
2022-11-22T06:16:32.768Z,54.33
2022-11-22T06:19:00.770Z,54.23
2022-11-22T06:21:29.102Z,54.45
2022-11-22T06:23:57.112Z,54.23
2022-11-22T06:26:26.968Z,53.94
2022-11-22T06:28:55.451Z,53.91
2022-11-22T06:31:26.187Z,53.97
2022-11-22T06:34:00.015Z,53.95
2022-11-22T06:36:34.154Z,53.99
2022-11-22T06:39:03.819Z,53.98
2022-11-22T06:41:37.756Z,53.60
2022-11-22T06:44:09.614Z,53.91
2022-11-22T06:46:37.909Z,53.64
2022-11-22T06:49:05.991Z,53.75
2022-11-22T06:51:33.834Z,53.71
2022-11-22T06:54:01.612Z,53.55
2022-11-22T06:56:37.693Z,53.36
2022-11-22T06:59:07.516Z,53.69
2022-11-22T07:01:37.532Z,53.67
2022-11-22T07:04:06.018Z,53.70
2022-11-22T07:06:38.839Z,53.58
2022-11-22T07:09:14.124Z,53.56
2022-11-22T07:11:42.432Z,53.69
2022-11-22T07:14:10.345Z,53.53
2022-11-22T07:16:38.889Z,53.50
2022-11-22T07:19:07.366Z,53.54
2022-11-22T07:21:37.775Z,53.69
2022-11-22T07:24:07.345Z,53.49
2022-11-22T07:26:36.541Z,53.81
2022-11-22T07:29:05.455Z,53.49
2022-11-22T07:31:34.939Z,53.82
2022-11-22T07:34:03.200Z,53.54
2022-11-22T07:36:31.068Z,53.58
2022-11-22T07:38:59.038Z,53.47
2022-11-22T07:41:27.398Z,53.40
2022-11-22T07:43:55.721Z,53.30
2022-11-22T07:46:31.982Z,53.03
2022-11-22T07:49:01.820Z,53.20
2022-11-22T07:51:31.378Z,53.37
2022-11-22T07:53:59.588Z,53.05
2022-11-22T07:56:27.890Z,53.13
2022-11-22T07:58:57.238Z,53.17
2022-11-22T08:01:25.167Z,52.87
2022-11-22T08:03:53.040Z,52.96
2022-11-22T08:06:21.371Z,53.07
2022-11-22T08:08:49.798Z,52.93
2022-11-22T08:11:17.612Z,53.05
2022-11-22T08:13:45.626Z,53.17
2022-11-22T08:16:16.296Z,53.03
2022-11-22T08:18:50.008Z,53.00
2022-11-22T08:21:22.313Z,53.15
2022-11-22T08:23:51.206Z,53.21
2022-11-22T08:26:21.424Z,53.26
2022-11-22T08:28:49.438Z,53.06
2022-11-22T08:31:19.996Z,53.40
2022-11-22T08:33:49.125Z,53.61
2022-11-22T08:36:16.996Z,53.66
2022-11-22T08:38:44.850Z,53.53
2022-11-22T08:41:13.410Z,53.70
2022-11-22T08:43:41.465Z,53.69
2022-11-22T08:46:09.962Z,53.77
2022-11-22T08:48:38.832Z,53.79
2022-11-22T08:51:09.803Z,53.86
2022-11-22T08:53:40.647Z,53.90
2022-11-22T08:56:13.555Z,53.83
2022-11-22T08:58:41.764Z,53.69
2022-11-22T09:01:16.447Z,53.65
2022-11-22T09:03:45.811Z,53.62
2022-11-22T09:09:42.434Z,53.91
2022-11-22T09:11:55.518Z,53.58
2022-11-22T09:14:23.378Z,53.59
2022-11-22T09:16:51.136Z,53.50
2022-11-22T09:19:18.968Z,53.34
2022-11-22T09:21:47.137Z,53.18
2022-11-22T09:24:15.388Z,53.24
2022-11-22T09:26:45.671Z,53.18
2022-11-22T09:29:15.612Z,53.05
2022-11-22T09:31:43.832Z,53.19
2022-11-22T09:34:11.664Z,53.26
2022-11-22T09:36:39.489Z,52.74
2022-11-22T09:39:08.794Z,52.78
2022-11-22T09:42:20.238Z,52.58
2022-11-22T09:45:42.330Z,52.57
2022-11-22T09:49:03.820Z,52.77
2022-11-22T09:52:27.356Z,52.53
2022-11-22T09:55:05.363Z,52.55
2022-11-22T09:57:42.999Z,52.65
2022-11-22T10:00:32.148Z,52.10
2022-11-22T10:03:27.978Z,52.22
2022-11-22T10:06:01.874Z,52.20
2022-11-22T10:08:47.180Z,51.91
2022-11-22T10:11:58.943Z,51.78
2022-11-22T10:15:07.587Z,51.96
2022-11-22T10:17:59.259Z,52.08
2022-11-22T10:20:32.443Z,52.04
2022-11-22T10:23:00.481Z,51.93
2022-11-22T10:25:41.367Z,51.42
2022-11-22T10:28:36.692Z,51.54
2022-11-22T10:31:17.655Z,51.55
2022-11-22T10:34:48.412Z,51.34
2022-11-22T10:38:09.313Z,51.47
2022-11-22T10:41:12.789Z,51.26
2022-11-22T10:44:02.965Z,51.30
2022-11-22T10:47:05.191Z,51.21
2022-11-22T10:50:03.532Z,50.99
2022-11-22T10:52:44.910Z,50.94
2022-11-22T10:55:47.404Z,50.96
2022-11-22T10:58:39.730Z,50.80
2022-11-22T11:01:27.113Z,50.78
2022-11-22T11:03:59.953Z,50.67
2022-11-22T11:07:11.830Z,50.40
2022-11-22T11:10:16.283Z,50.60
2022-11-22T11:12:58.390Z,50.10
2022-11-22T11:15:40.567Z,50.05
2022-11-22T11:18:55.253Z,50.12
2022-11-22T11:21:23.786Z,50.29
2022-11-22T11:23:53.445Z,50.06
2022-11-22T11:26:31.977Z,49.75
2022-11-22T11:29:18.645Z,49.68
2022-11-22T11:31:49.749Z,49.57
2022-11-22T11:34:26.730Z,49.50
2022-11-22T11:36:57.861Z,49.46
2022-11-22T11:39:32.125Z,49.46
2022-11-22T11:42:20.800Z,49.44
2022-11-22T11:44:48.837Z,49.30
2022-11-22T11:47:33.055Z,49.08
2022-11-22T11:50:01.229Z,49.35
2022-11-22T11:52:31.898Z,48.95
2022-11-22T11:55:02.319Z,48.90
2022-11-22T11:57:35.649Z,48.47
2022-11-22T12:00:38.166Z,48.26
2022-11-22T12:03:09.099Z,48.35
2022-11-22T12:05:37.011Z,48.54
2022-11-22T12:08:32.142Z,47.96
2022-11-22T12:11:09.982Z,47.96
2022-11-22T12:14:19.562Z,47.57
2022-11-22T12:16:54.144Z,47.96
2022-11-22T12:19:42.243Z,47.48
2022-11-22T12:22:48.978Z,47.10
2022-11-22T12:25:39.251Z,47.24
2022-11-22T12:28:27.742Z,47.01
2022-11-22T12:31:18.990Z,46.64
2022-11-22T12:33:54.654Z,46.80
2022-11-22T12:36:43.787Z,46.33
2022-11-22T12:39:26.576Z,46.28
2022-11-22T12:42:08.268Z,46.06
2022-11-22T12:44:43.066Z,46.08
2022-11-22T12:47:16.475Z,46.10
2022-11-22T12:49:47.942Z,45.85
2022-11-22T12:52:24.479Z,45.89
2022-11-22T12:55:13.423Z,45.53
2022-11-22T12:57:49.280Z,45.49
2022-11-22T13:00:25.434Z,45.45
2022-11-22T13:03:05.534Z,45.37
2022-11-22T13:05:57.835Z,45.35
2022-11-22T13:08:53.977Z,45.06
2022-11-22T13:11:40.651Z,45.03
2022-11-22T13:14:24.559Z,44.91
2022-11-22T13:16:55.593Z,44.98
2022-11-22T13:19:27.375Z,45.08
2022-11-22T13:22:40.734Z,44.97
2022-11-22T13:25:36.587Z,44.93
2022-11-22T13:28:23.397Z,44.62
2022-11-22T13:31:12.639Z,45.01
2022-11-22T13:34:25.337Z,44.98
2022-11-22T13:36:56.696Z,45.29
2022-11-22T13:39:28.787Z,45.26
2022-11-22T13:41:59.475Z,45.21
2022-11-22T13:44:30.781Z,45.15
2022-11-22T13:47:06.796Z,45.18
2022-11-22T13:49:48.316Z,45.18
2022-11-22T13:52:17.112Z,45.21
2022-11-22T13:54:50.437Z,44.92
2022-11-22T13:57:37.674Z,44.70
2022-11-22T14:00:14.775Z,44.93
2022-11-22T14:02:53.572Z,44.88
2022-11-22T14:05:41.284Z,44.71
2022-11-22T14:08:34.935Z,44.47
2022-11-22T14:11:58.947Z,44.77
2022-11-22T14:15:23.844Z,45.00
2022-11-22T14:18:48.813Z,45.22
2022-11-22T14:21:58.069Z,45.11
2022-11-22T14:24:28.819Z,45.25
2022-11-22T14:27:43.613Z,45.02
2022-11-22T14:30:21.646Z,45.06
2022-11-22T14:33:02.348Z,45.12
2022-11-22T14:35:37.985Z,45.26
2022-11-22T14:38:36.079Z,45.28
2022-11-22T14:41:30.032Z,45.35
2022-11-22T14:44:14.686Z,45.36
2022-11-22T14:46:58.466Z,45.08
2022-11-22T14:49:48.171Z,45.28
2022-11-22T14:52:26.938Z,45.23
2022-11-22T14:55:01.813Z,45.45
2022-11-22T14:57:32.651Z,45.55
2022-11-22T15:00:24.461Z,45.46
2022-11-22T15:03:19.740Z,46.17
2022-11-22T15:09:22.732Z,46.02
2022-11-22T15:09:46.494Z,46.02
2022-11-22T15:13:30.476Z,46.04
2022-11-22T15:57:44.926Z,47.01
2022-11-22T16:00:29.573Z,46.98
2022-11-22T16:03:09.180Z,47.00
2022-11-22T16:06:07.928Z,47.10
2022-11-22T16:08:31.098Z,47.39
2022-11-22T16:11:01.713Z,47.40
2022-11-22T16:13:35.347Z,47.56
2022-11-22T16:16:12.756Z,47.70
2022-11-22T16:18:45.653Z,47.81
2022-11-22T16:21:17.164Z,48.05
2022-11-22T16:23:45.942Z,48.18
2022-11-22T16:26:25.261Z,48.32
2022-11-22T16:28:54.867Z,48.44
2022-11-22T16:31:31.789Z,48.60
2022-11-22T16:34:03.523Z,48.77
2022-11-22T16:36:33.199Z,48.96
2022-11-22T16:39:01.736Z,49.08
2022-11-22T16:41:30.203Z,49.26
2022-11-22T16:44:13.782Z,49.37
2022-11-22T16:46:42.311Z,49.47
2022-11-22T16:49:21.908Z,49.53
2022-11-22T16:51:51.133Z,49.70
2022-11-22T16:54:20.991Z,49.72
2022-11-22T16:56:48.869Z,49.67
2022-11-22T16:59:18.377Z,49.74
2022-11-22T17:01:46.728Z,49.83
2022-11-22T17:04:25.438Z,49.97
2022-11-22T17:06:54.890Z,50.07
2022-11-22T17:09:23.530Z,50.12
2022-11-22T17:11:52.659Z,49.86
2022-11-22T17:14:28.099Z,50.05
2022-11-22T17:16:58.913Z,50.18
2022-11-22T17:19:52.099Z,50.08
2022-11-22T17:22:18.524Z,50.15
2022-11-22T17:24:47.018Z,50.22
2022-11-22T17:27:16.310Z,50.54
2022-11-22T17:29:51.668Z,50.29
2022-11-22T17:32:20.172Z,50.07
2022-11-22T17:34:49.292Z,50.29
2022-11-22T17:37:17.583Z,50.25
2022-11-22T17:39:46.429Z,50.31
2022-11-22T17:42:15.761Z,50.37
2022-11-22T17:44:43.948Z,50.49
2022-11-22T17:47:12.265Z,50.43
2022-11-22T17:49:41.237Z,50.47
2022-11-22T17:52:10.401Z,50.36
2022-11-22T17:54:39.825Z,50.49
2022-11-22T17:57:08.538Z,50.30
2022-11-22T17:59:37.125Z,50.15
2022-11-22T18:02:06.539Z,50.23
2022-11-22T18:04:35.618Z,50.20
2022-11-22T18:07:04.488Z,50.29
2022-11-22T18:09:35.244Z,50.10
2022-11-22T18:12:03.825Z,50.13
2022-11-22T18:14:32.168Z,50.24
2022-11-22T18:17:00.852Z,50.22
2022-11-22T18:19:29.968Z,50.31
2022-11-22T18:21:59.441Z,50.14
2022-11-22T18:24:27.959Z,50.40
2022-11-22T18:26:56.772Z,50.35
2022-11-22T18:29:43.179Z,50.28
2022-11-22T18:32:13.343Z,50.26
2022-11-22T18:34:42.861Z,50.44
2022-11-22T18:37:11.059Z,50.37
2022-11-22T18:39:41.509Z,50.49
2022-11-22T18:42:18.594Z,50.65
2022-11-22T18:44:48.805Z,50.67
2022-11-22T18:47:20.781Z,50.60
2022-11-22T18:49:50.631Z,50.57
2022-11-22T18:52:19.407Z,50.69
2022-11-22T18:54:49.989Z,50.56
2022-11-22T18:57:20.628Z,50.65
2022-11-22T18:59:50.113Z,50.62
2022-11-22T19:02:21.081Z,50.63
2022-11-22T19:04:50.171Z,50.72
2022-11-22T19:07:19.529Z,50.77
2022-11-22T19:09:49.162Z,50.55
2022-11-22T19:12:20.100Z,50.51
2022-11-22T19:14:52.966Z,50.53
2022-11-22T19:17:22.251Z,50.56
2022-11-22T19:19:59.453Z,50.47
2022-11-22T19:22:34.150Z,50.56
2022-11-22T19:25:03.518Z,50.53
2022-11-22T19:27:33.456Z,50.70
2022-11-22T19:30:03.269Z,50.64
2022-11-22T19:32:33.403Z,50.68
2022-11-22T19:35:04.776Z,50.55
2022-11-22T19:37:35.352Z,50.86
2022-11-22T19:40:05.067Z,50.68
2022-11-22T19:42:37.061Z,50.82
2022-11-22T19:45:11.759Z,50.79
2022-11-22T19:47:40.647Z,50.75
2022-11-22T19:50:11.270Z,50.72
2022-11-22T19:52:43.476Z,51.02
2022-11-22T19:55:15.843Z,50.80
2022-11-22T19:57:48.968Z,50.84
2022-11-22T20:00:18.100Z,51.11
2022-11-22T20:02:47.612Z,51.12
2022-11-22T20:05:17.261Z,50.84
2022-11-22T20:07:47.302Z,50.91
2022-11-22T20:10:17.170Z,50.90
2022-11-22T20:12:46.952Z,50.82
2022-11-22T20:15:19.888Z,50.80
2022-11-22T20:17:48.332Z,50.64
2022-11-22T20:20:21.063Z,50.95
2022-11-22T20:22:52.903Z,50.81
2022-11-22T20:25:26.977Z,50.90
2022-11-22T20:27:55.607Z,51.08
2022-11-22T20:30:28.480Z,50.85
2022-11-22T20:32:58.352Z,51.08
2022-11-22T20:35:28.633Z,51.08
2022-11-22T20:37:58.919Z,51.18
2022-11-22T20:40:31.094Z,50.85
2022-11-22T20:43:00.328Z,50.81
2022-11-22T20:45:28.649Z,51.03
2022-11-22T20:48:00.932Z,50.95
2022-11-22T20:50:30.387Z,51.33
2022-11-22T20:53:02.645Z,51.11
2022-11-22T20:55:31.508Z,51.11
2022-11-22T20:58:00.985Z,51.04
2022-11-22T21:00:30.615Z,50.86
2022-11-22T21:03:00.876Z,50.84
2022-11-22T21:05:29.504Z,51.08
2022-11-22T21:08:02.386Z,50.99
2022-11-22T21:10:34.321Z,50.96
2022-11-22T21:13:08.265Z,51.06
2022-11-22T21:15:37.959Z,51.10
2022-11-22T21:18:24.783Z,50.89
2022-11-22T21:20:55.505Z,51.11
2022-11-22T21:23:24.936Z,51.10
2022-11-22T21:25:53.943Z,51.04
2022-11-22T21:28:22.636Z,50.93
2022-11-22T21:30:57.919Z,50.80
2022-11-22T21:33:26.643Z,50.77
2022-11-22T21:35:55.155Z,50.95
2022-11-22T21:38:29.652Z,50.83
2022-11-22T21:41:31.791Z,50.68
2022-11-22T21:43:51.418Z,50.82
2022-11-22T21:46:20.661Z,50.77
2022-11-22T21:48:50.598Z,51.01
2022-11-22T21:51:19.164Z,50.92
2022-11-22T21:53:47.537Z,50.85
2022-11-22T21:56:15.810Z,51.01
2022-11-22T21:58:44.819Z,50.93
2022-11-22T22:01:14.370Z,50.97
2022-11-22T22:03:42.629Z,50.96
2022-11-22T22:06:11.166Z,50.91
2022-11-22T22:08:40.884Z,51.00
2022-11-22T22:11:09.438Z,50.98
2022-11-22T22:13:37.564Z,50.96
2022-11-22T22:16:13.516Z,50.87
2022-11-22T22:18:43.867Z,50.93
2022-11-22T22:21:13.837Z,50.86
2022-11-22T22:23:43.584Z,50.70
2022-11-22T22:26:16.469Z,50.53
2022-11-22T22:28:46.964Z,50.63
2022-11-22T22:31:25.239Z,50.45
2022-11-22T22:33:55.570Z,50.25
2022-11-22T22:36:27.655Z,50.16
2022-11-22T22:38:56.314Z,50.39
2022-11-22T22:41:24.470Z,50.32
2022-11-22T22:43:52.417Z,50.31
2022-11-22T22:46:27.147Z,50.33
2022-11-22T22:48:56.187Z,50.33
2022-11-22T22:51:33.183Z,50.18
2022-11-22T22:54:02.338Z,50.43
2022-11-22T22:56:31.462Z,50.34
2022-11-22T22:59:01.417Z,50.57
2022-11-22T23:01:31.751Z,50.12
2022-11-22T23:04:02.162Z,50.13
2022-11-22T23:06:36.468Z,50.15
2022-11-22T23:09:07.625Z,50.03
2022-11-22T23:11:55.747Z,49.89
2022-11-22T23:14:27.284Z,50.03
2022-11-22T23:16:57.988Z,50.42
2022-11-22T23:19:27.928Z,50.35
2022-11-22T23:21:56.577Z,50.09
2022-11-22T23:24:24.976Z,50.12
2022-11-22T23:26:53.089Z,50.25
2022-11-22T23:29:21.458Z,50.26
2022-11-22T23:31:50.141Z,50.37
2022-11-22T23:34:19.363Z,50.74
2022-11-22T23:36:47.654Z,50.64
2022-11-22T23:39:16.121Z,50.65
2022-11-22T23:41:45.063Z,50.78
2022-11-22T23:44:13.441Z,50.69
2022-11-22T23:46:41.741Z,50.76
2022-11-22T23:49:11.979Z,50.83
2022-11-22T23:51:39.996Z,50.87
2022-11-22T23:54:09.089Z,50.94
2022-11-22T23:56:37.558Z,50.97
2022-11-22T23:59:05.767Z,50.73
